sensor_id;sensor_type;location;lat;lon;timestamp;P1;durP1;ratioP1;P2;durP2;ratioP2
9479;SDS011;4778;44.510;11.378;2023-03-04T00:01:18;15.45;;;10.05;;
9479;SDS011;4778;44.510;11.378;2023-03-04T00:03:44;14.10;;;10.27;;
9479;SDS011;4778;44.510;11.378;2023-03-04T00:06:10;16.10;;;10.18;;
9479;SDS011;4778;44.510;11.378;2023-03-04T00:08:36;13.63;;;9.60;;
9479;SDS011;4778;44.510;11.378;2023-03-04T00:11:02;16.10;;;10.13;;
9479;SDS011;4778;44.510;11.378;2023-03-04T00:13:28;14.32;;;10.52;;
9479;SDS011;4778;44.510;11.378;2023-03-04T00:15:55;16.92;;;10.63;;
9479;SDS011;4778;44.510;11.378;2023-03-04T00:18:21;15.82;;;10.68;;
9479;SDS011;4778;44.510;11.378;2023-03-04T00:20:47;16.95;;;10.52;;
9479;SDS011;4778;44.510;11.378;2023-03-04T00:23:14;14.80;;;10.32;;
9479;SDS011;4778;44.510;11.378;2023-03-04T00:25:41;15.75;;;10.10;;
9479;SDS011;4778;44.510;11.378;2023-03-04T00:28:07;16.75;;;11.20;;
9479;SDS011;4778;44.510;11.378;2023-03-04T00:30:33;16.10;;;11.38;;
9479;SDS011;4778;44.510;11.378;2023-03-04T00:32:59;14.85;;;10.65;;
9479;SDS011;4778;44.510;11.378;2023-03-04T00:35:25;15.95;;;11.07;;
9479;SDS011;4778;44.510;11.378;2023-03-04T00:37:51;18.52;;;11.02;;
9479;SDS011;4778;44.510;11.378;2023-03-04T00:40:17;15.83;;;10.77;;
9479;SDS011;4778;44.510;11.378;2023-03-04T00:42:44;16.73;;;11.20;;
9479;SDS011;4778;44.510;11.378;2023-03-04T00:45:10;15.85;;;11.13;;
9479;SDS011;4778;44.510;11.378;2023-03-04T00:47:36;17.80;;;11.60;;
9479;SDS011;4778;44.510;11.378;2023-03-04T00:50:02;15.65;;;11.60;;
9479;SDS011;4778;44.510;11.378;2023-03-04T00:52:28;19.73;;;11.35;;
9479;SDS011;4778;44.510;11.378;2023-03-04T00:54:54;14.60;;;10.75;;
9479;SDS011;4778;44.510;11.378;2023-03-04T00:57:21;16.50;;;11.88;;
9479;SDS011;4778;44.510;11.378;2023-03-04T00:59:47;16.90;;;11.15;;
9479;SDS011;4778;44.510;11.378;2023-03-04T01:02:13;19.33;;;11.70;;
9479;SDS011;4778;44.510;11.378;2023-03-04T01:04:39;16.80;;;11.48;;
9479;SDS011;4778;44.510;11.378;2023-03-04T01:07:06;14.98;;;11.05;;
9479;SDS011;4778;44.510;11.378;2023-03-04T01:09:32;18.63;;;11.43;;
9479;SDS011;4778;44.510;11.378;2023-03-04T01:11:58;17.55;;;10.90;;
9479;SDS011;4778;44.510;11.378;2023-03-04T01:14:24;16.77;;;12.20;;
9479;SDS011;4778;44.510;11.378;2023-03-04T01:16:50;18.65;;;11.90;;
9479;SDS011;4778;44.510;11.378;2023-03-04T01:19:16;19.70;;;12.68;;
9479;SDS011;4778;44.510;11.378;2023-03-04T01:21:42;17.60;;;12.43;;
9479;SDS011;4778;44.510;11.378;2023-03-04T01:24:09;19.67;;;12.45;;
9479;SDS011;4778;44.510;11.378;2023-03-04T01:26:35;16.92;;;11.63;;
9479;SDS011;4778;44.510;11.378;2023-03-04T01:29:01;16.23;;;11.93;;
9479;SDS011;4778;44.510;11.378;2023-03-04T01:31:27;18.57;;;12.33;;
9479;SDS011;4778;44.510;11.378;2023-03-04T01:33:53;18.45;;;12.00;;
9479;SDS011;4778;44.510;11.378;2023-03-04T01:36:19;15.98;;;11.88;;
9479;SDS011;4778;44.510;11.378;2023-03-04T01:38:46;15.80;;;11.88;;
9479;SDS011;4778;44.510;11.378;2023-03-04T01:41:12;19.73;;;12.88;;
9479;SDS011;4778;44.510;11.378;2023-03-04T01:43:38;17.55;;;12.05;;
9479;SDS011;4778;44.510;11.378;2023-03-04T01:46:05;19.48;;;12.38;;
9479;SDS011;4778;44.510;11.378;2023-03-04T01:48:36;18.88;;;13.07;;
9479;SDS011;4778;44.510;11.378;2023-03-04T01:51:03;15.55;;;12.25;;
9479;SDS011;4778;44.510;11.378;2023-03-04T01:53:29;18.15;;;12.52;;
9479;SDS011;4778;44.510;11.378;2023-03-04T01:56:01;18.63;;;12.95;;
9479;SDS011;4778;44.510;11.378;2023-03-04T01:58:30;18.40;;;12.70;;
9479;SDS011;4778;44.510;11.378;2023-03-04T02:00:57;19.63;;;13.07;;
9479;SDS011;4778;44.510;11.378;2023-03-04T02:03:24;19.42;;;13.10;;
9479;SDS011;4778;44.510;11.378;2023-03-04T02:05:51;20.40;;;12.93;;
9479;SDS011;4778;44.510;11.378;2023-03-04T02:08:17;19.63;;;13.32;;
9479;SDS011;4778;44.510;11.378;2023-03-04T02:10:44;19.63;;;12.77;;
9479;SDS011;4778;44.510;11.378;2023-03-04T02:13:10;19.38;;;12.93;;
9479;SDS011;4778;44.510;11.378;2023-03-04T02:15:37;17.37;;;13.10;;
9479;SDS011;4778;44.510;11.378;2023-03-04T02:18:06;19.30;;;12.63;;
9479;SDS011;4778;44.510;11.378;2023-03-04T02:23:41;21.58;;;14.75;;
9479;SDS011;4778;44.510;11.378;2023-03-04T02:26:27;19.58;;;13.55;;
9479;SDS011;4778;44.510;11.378;2023-03-04T02:28:54;20.92;;;13.35;;
9479;SDS011;4778;44.510;11.378;2023-03-04T02:33:50;18.77;;;13.57;;
9479;SDS011;4778;44.510;11.378;2023-03-04T02:36:17;18.83;;;13.10;;
9479;SDS011;4778;44.510;11.378;2023-03-04T02:38:43;19.92;;;13.27;;
9479;SDS011;4778;44.510;11.378;2023-03-04T02:41:13;20.85;;;13.10;;
9479;SDS011;4778;44.510;11.378;2023-03-04T02:43:42;18.50;;;12.98;;
9479;SDS011;4778;44.510;11.378;2023-03-04T02:46:09;19.50;;;12.95;;
9479;SDS011;4778;44.510;11.378;2023-03-04T02:48:37;20.08;;;13.88;;
9479;SDS011;4778;44.510;11.378;2023-03-04T02:51:03;20.17;;;13.48;;
9479;SDS011;4778;44.510;11.378;2023-03-04T02:53:29;18.52;;;13.48;;
9479;SDS011;4778;44.510;11.378;2023-03-04T02:55:55;20.77;;;13.40;;
9479;SDS011;4778;44.510;11.378;2023-03-04T02:58:21;21.05;;;13.18;;
9479;SDS011;4778;44.510;11.378;2023-03-04T03:00:47;21.50;;;13.93;;
9479;SDS011;4778;44.510;11.378;2023-03-04T03:03:13;22.75;;;13.68;;
9479;SDS011;4778;44.510;11.378;2023-03-04T03:05:39;21.23;;;13.45;;
9479;SDS011;4778;44.510;11.378;2023-03-04T03:08:05;17.88;;;12.50;;
9479;SDS011;4778;44.510;11.378;2023-03-04T03:10:32;20.65;;;13.85;;
9479;SDS011;4778;44.510;11.378;2023-03-04T03:12:58;24.08;;;14.05;;
9479;SDS011;4778;44.510;11.378;2023-03-04T03:15:24;18.88;;;12.73;;
9479;SDS011;4778;44.510;11.378;2023-03-04T03:17:50;18.27;;;13.10;;
9479;SDS011;4778;44.510;11.378;2023-03-04T03:20:16;19.58;;;12.70;;
9479;SDS011;4778;44.510;11.378;2023-03-04T03:22:43;22.77;;;14.03;;
9479;SDS011;4778;44.510;11.378;2023-03-04T03:25:10;17.83;;;13.27;;
9479;SDS011;4778;44.510;11.378;2023-03-04T03:27:36;20.75;;;14.02;;
9479;SDS011;4778;44.510;11.378;2023-03-04T03:30:02;19.20;;;13.95;;
9479;SDS011;4778;44.510;11.378;2023-03-04T03:32:29;21.02;;;13.98;;
9479;SDS011;4778;44.510;11.378;2023-03-04T03:34:55;21.40;;;14.80;;
9479;SDS011;4778;44.510;11.378;2023-03-04T03:37:22;22.23;;;13.82;;
9479;SDS011;4778;44.510;11.378;2023-03-04T03:39:48;21.52;;;13.07;;
9479;SDS011;4778;44.510;11.378;2023-03-04T03:42:14;20.90;;;13.88;;
9479;SDS011;4778;44.510;11.378;2023-03-04T03:44:40;18.50;;;12.75;;
9479;SDS011;4778;44.510;11.378;2023-03-04T03:47:06;21.58;;;13.32;;
9479;SDS011;4778;44.510;11.378;2023-03-04T03:49:32;20.13;;;13.05;;
9479;SDS011;4778;44.510;11.378;2023-03-04T03:51:58;23.88;;;14.60;;
9479;SDS011;4778;44.510;11.378;2023-03-04T03:54:24;19.35;;;13.55;;
9479;SDS011;4778;44.510;11.378;2023-03-04T03:56:50;20.97;;;13.47;;
9479;SDS011;4778;44.510;11.378;2023-03-04T03:59:16;22.40;;;13.02;;
9479;SDS011;4778;44.510;11.378;2023-03-04T04:01:43;19.87;;;13.50;;
9479;SDS011;4778;44.510;11.378;2023-03-04T04:04:09;18.13;;;12.80;;
9479;SDS011;4778;44.510;11.378;2023-03-04T04:06:35;21.05;;;12.73;;
9479;SDS011;4778;44.510;11.378;2023-03-04T04:09:01;20.13;;;13.80;;
9479;SDS011;4778;44.510;11.378;2023-03-04T04:11:28;19.15;;;12.52;;
9479;SDS011;4778;44.510;11.378;2023-03-04T04:13:54;21.80;;;13.27;;
9479;SDS011;4778;44.510;11.378;2023-03-04T04:16:20;19.83;;;12.77;;
9479;SDS011;4778;44.510;11.378;2023-03-04T04:18:46;17.88;;;12.90;;
9479;SDS011;4778;44.510;11.378;2023-03-04T04:21:12;19.20;;;13.07;;
9479;SDS011;4778;44.510;11.378;2023-03-04T04:23:39;20.90;;;13.80;;
9479;SDS011;4778;44.510;11.378;2023-03-04T04:26:05;19.77;;;12.75;;
9479;SDS011;4778;44.510;11.378;2023-03-04T04:28:32;17.20;;;11.90;;
9479;SDS011;4778;44.510;11.378;2023-03-04T04:30:58;21.95;;;13.07;;
9479;SDS011;4778;44.510;11.378;2023-03-04T04:33:24;18.23;;;12.60;;
9479;SDS011;4778;44.510;11.378;2023-03-04T04:35:51;20.02;;;13.30;;
9479;SDS011;4778;44.510;11.378;2023-03-04T04:38:17;19.40;;;13.38;;
9479;SDS011;4778;44.510;11.378;2023-03-04T04:40:43;18.63;;;12.77;;
9479;SDS011;4778;44.510;11.378;2023-03-04T04:43:09;18.52;;;13.25;;
9479;SDS011;4778;44.510;11.378;2023-03-04T04:45:35;22.00;;;13.90;;
9479;SDS011;4778;44.510;11.378;2023-03-04T04:48:01;19.05;;;13.55;;
9479;SDS011;4778;44.510;11.378;2023-03-04T04:50:27;20.92;;;13.43;;
9479;SDS011;4778;44.510;11.378;2023-03-04T04:52:54;23.10;;;13.93;;
9479;SDS011;4778;44.510;11.378;2023-03-04T04:55:20;22.55;;;14.52;;
9479;SDS011;4778;44.510;11.378;2023-03-04T04:57:46;22.93;;;14.80;;
9479;SDS011;4778;44.510;11.378;2023-03-04T05:00:12;25.13;;;14.27;;
9479;SDS011;4778;44.510;11.378;2023-03-04T05:02:38;22.05;;;14.85;;
9479;SDS011;4778;44.510;11.378;2023-03-04T05:05:05;23.73;;;13.85;;
9479;SDS011;4778;44.510;11.378;2023-03-04T05:07:31;21.88;;;14.50;;
9479;SDS011;4778;44.510;11.378;2023-03-04T05:09:57;19.60;;;13.68;;
9479;SDS011;4778;44.510;11.378;2023-03-04T05:12:24;24.65;;;15.40;;
9479;SDS011;4778;44.510;11.378;2023-03-04T05:14:50;26.13;;;14.67;;
9479;SDS011;4778;44.510;11.378;2023-03-04T05:17:16;23.58;;;14.35;;
9479;SDS011;4778;44.510;11.378;2023-03-04T05:19:42;24.35;;;15.18;;
9479;SDS011;4778;44.510;11.378;2023-03-04T05:22:08;24.67;;;15.52;;
9479;SDS011;4778;44.510;11.378;2023-03-04T05:24:34;24.10;;;14.90;;
9479;SDS011;4778;44.510;11.378;2023-03-04T05:27:00;22.17;;;15.38;;
9479;SDS011;4778;44.510;11.378;2023-03-04T05:29:26;22.83;;;14.32;;
9479;SDS011;4778;44.510;11.378;2023-03-04T05:31:53;24.50;;;14.90;;
9479;SDS011;4778;44.510;11.378;2023-03-04T05:34:19;23.67;;;14.82;;
9479;SDS011;4778;44.510;11.378;2023-03-04T05:36:45;27.85;;;14.93;;
9479;SDS011;4778;44.510;11.378;2023-03-04T05:39:11;23.95;;;14.77;;
9479;SDS011;4778;44.510;11.378;2023-03-04T05:41:37;23.60;;;14.73;;
9479;SDS011;4778;44.510;11.378;2023-03-04T05:44:03;24.67;;;15.48;;
9479;SDS011;4778;44.510;11.378;2023-03-04T05:46:29;25.30;;;14.03;;
9479;SDS011;4778;44.510;11.378;2023-03-04T05:48:55;22.45;;;14.73;;
9479;SDS011;4778;44.510;11.378;2023-03-04T05:51:22;20.50;;;14.10;;
9479;SDS011;4778;44.510;11.378;2023-03-04T05:53:48;25.92;;;15.70;;
9479;SDS011;4778;44.510;11.378;2023-03-04T05:56:15;21.92;;;14.57;;
9479;SDS011;4778;44.510;11.378;2023-03-04T05:58:41;24.60;;;15.95;;
9479;SDS011;4778;44.510;11.378;2023-03-04T06:01:08;27.40;;;14.90;;
9479;SDS011;4778;44.510;11.378;2023-03-04T06:03:34;23.88;;;14.88;;
9479;SDS011;4778;44.510;11.378;2023-03-04T06:06:00;24.60;;;14.48;;
9479;SDS011;4778;44.510;11.378;2023-03-04T06:08:26;25.60;;;14.88;;
9479;SDS011;4778;44.510;11.378;2023-03-04T06:10:53;22.98;;;15.23;;
9479;SDS011;4778;44.510;11.378;2023-03-04T06:13:20;22.80;;;14.68;;
9479;SDS011;4778;44.510;11.378;2023-03-04T06:15:46;23.15;;;14.73;;
9479;SDS011;4778;44.510;11.378;2023-03-04T06:18:12;24.70;;;15.57;;
9479;SDS011;4778;44.510;11.378;2023-03-04T06:20:38;22.85;;;14.63;;
9479;SDS011;4778;44.510;11.378;2023-03-04T06:23:05;22.38;;;14.90;;
9479;SDS011;4778;44.510;11.378;2023-03-04T06:25:31;24.50;;;15.53;;
9479;SDS011;4778;44.510;11.378;2023-03-04T06:27:57;22.10;;;14.02;;
9479;SDS011;4778;44.510;11.378;2023-03-04T06:30:23;618.55;;;565.88;;
9479;SDS011;4778;44.510;11.378;2023-03-04T06:32:49;538.07;;;492.87;;
9479;SDS011;4778;44.510;11.378;2023-03-04T06:35:15;539.65;;;502.33;;
9479;SDS011;4778;44.510;11.378;2023-03-04T06:37:43;48.25;;;42.38;;
9479;SDS011;4778;44.510;11.378;2023-03-04T06:40:09;26.38;;;15.88;;
9479;SDS011;4778;44.510;11.378;2023-03-04T06:42:35;106.28;;;97.72;;
9479;SDS011;4778;44.510;11.378;2023-03-04T06:45:02;193.10;;;172.33;;
9479;SDS011;4778;44.510;11.378;2023-03-04T06:47:28;243.90;;;226.80;;
9479;SDS011;4778;44.510;11.378;2023-03-04T06:49:54;24.30;;;14.60;;
9479;SDS011;4778;44.510;11.378;2023-03-04T06:52:21;59.80;;;54.38;;
9479;SDS011;4778;44.510;11.378;2023-03-04T06:54:47;19.77;;;13.90;;
9479;SDS011;4778;44.510;11.378;2023-03-04T06:57:13;21.75;;;13.77;;
9479;SDS011;4778;44.510;11.378;2023-03-04T06:59:39;21.67;;;14.82;;
9479;SDS011;4778;44.510;11.378;2023-03-04T07:02:05;39.42;;;35.70;;
9479;SDS011;4778;44.510;11.378;2023-03-04T07:04:31;23.60;;;14.45;;
9479;SDS011;4778;44.510;11.378;2023-03-04T07:06:57;23.33;;;16.55;;
9479;SDS011;4778;44.510;11.378;2023-03-04T07:09:24;23.77;;;14.68;;
9479;SDS011;4778;44.510;11.378;2023-03-04T07:11:50;31.13;;;24.00;;
9479;SDS011;4778;44.510;11.378;2023-03-04T07:14:16;26.90;;;22.58;;
9479;SDS011;4778;44.510;11.378;2023-03-04T07:16:42;103.55;;;94.03;;
9479;SDS011;4778;44.510;11.378;2023-03-04T07:19:08;23.60;;;14.73;;
9479;SDS011;4778;44.510;11.378;2023-03-04T07:21:34;21.60;;;14.73;;
9479;SDS011;4778;44.510;11.378;2023-03-04T07:24:01;19.60;;;13.73;;
9479;SDS011;4778;44.510;11.378;2023-03-04T07:26:28;24.35;;;14.43;;
9479;SDS011;4778;44.510;11.378;2023-03-04T07:28:54;22.57;;;14.43;;
9479;SDS011;4778;44.510;11.378;2023-03-04T07:31:23;21.98;;;14.30;;
9479;SDS011;4778;44.510;11.378;2023-03-04T07:33:54;24.98;;;14.73;;
9479;SDS011;4778;44.510;11.378;2023-03-04T07:36:20;24.75;;;15.05;;
9479;SDS011;4778;44.510;11.378;2023-03-04T07:38:47;24.00;;;15.27;;
9479;SDS011;4778;44.510;11.378;2023-03-04T07:41:13;22.23;;;14.93;;
9479;SDS011;4778;44.510;11.378;2023-03-04T07:43:39;22.85;;;14.38;;
9479;SDS011;4778;44.510;11.378;2023-03-04T07:46:06;20.65;;;14.70;;
9479;SDS011;4778;44.510;11.378;2023-03-04T07:48:32;21.10;;;14.38;;
9479;SDS011;4778;44.510;11.378;2023-03-04T07:51:40;21.53;;;14.93;;
9479;SDS011;4778;44.510;11.378;2023-03-04T07:53:49;22.48;;;15.80;;
9479;SDS011;4778;44.510;11.378;2023-03-04T07:56:17;23.00;;;15.60;;
9479;SDS011;4778;44.510;11.378;2023-03-04T07:58:43;21.30;;;14.85;;
9479;SDS011;4778;44.510;11.378;2023-03-04T08:03:36;23.55;;;14.80;;
9479;SDS011;4778;44.510;11.378;2023-03-04T08:06:05;22.02;;;14.45;;
9479;SDS011;4778;44.510;11.378;2023-03-04T08:08:32;19.50;;;14.30;;
9479;SDS011;4778;44.510;11.378;2023-03-04T08:10:58;21.83;;;14.27;;
9479;SDS011;4778;44.510;11.378;2023-03-04T08:13:24;21.65;;;14.70;;
9479;SDS011;4778;44.510;11.378;2023-03-04T08:15:50;21.70;;;14.43;;
9479;SDS011;4778;44.510;11.378;2023-03-04T08:18:16;20.60;;;14.60;;
9479;SDS011;4778;44.510;11.378;2023-03-04T08:20:42;21.43;;;14.17;;
9479;SDS011;4778;44.510;11.378;2023-03-04T08:23:09;22.65;;;14.52;;
9479;SDS011;4778;44.510;11.378;2023-03-04T08:25:39;20.13;;;14.68;;
9479;SDS011;4778;44.510;11.378;2023-03-04T08:28:05;19.25;;;14.18;;
9479;SDS011;4778;44.510;11.378;2023-03-04T08:30:31;19.40;;;13.20;;
9479;SDS011;4778;44.510;11.378;2023-03-04T08:32:58;21.40;;;14.18;;
9479;SDS011;4778;44.510;11.378;2023-03-04T08:35:24;20.55;;;13.38;;
9479;SDS011;4778;44.510;11.378;2023-03-04T08:37:50;22.27;;;14.20;;
9479;SDS011;4778;44.510;11.378;2023-03-04T08:40:16;19.65;;;14.32;;
9479;SDS011;4778;44.510;11.378;2023-03-04T08:42:42;21.60;;;13.75;;
9479;SDS011;4778;44.510;11.378;2023-03-04T08:45:08;20.33;;;13.77;;
9479;SDS011;4778;44.510;11.378;2023-03-04T08:47:34;21.35;;;13.45;;
9479;SDS011;4778;44.510;11.378;2023-03-04T08:50:00;19.63;;;14.65;;
9479;SDS011;4778;44.510;11.378;2023-03-04T08:52:28;22.35;;;13.63;;
9479;SDS011;4778;44.510;11.378;2023-03-04T08:54:54;21.90;;;14.93;;
9479;SDS011;4778;44.510;11.378;2023-03-04T08:57:20;22.17;;;14.50;;
9479;SDS011;4778;44.510;11.378;2023-03-04T08:59:47;20.17;;;14.88;;
9479;SDS011;4778;44.510;11.378;2023-03-04T09:02:13;21.60;;;14.13;;
9479;SDS011;4778;44.510;11.378;2023-03-04T09:04:39;20.65;;;14.02;;
9479;SDS011;4778;44.510;11.378;2023-03-04T09:07:05;17.80;;;13.60;;
9479;SDS011;4778;44.510;11.378;2023-03-04T09:09:33;21.83;;;14.90;;
9479;SDS011;4778;44.510;11.378;2023-03-04T09:11:59;22.55;;;14.68;;
9479;SDS011;4778;44.510;11.378;2023-03-04T09:14:25;20.77;;;14.82;;
9479;SDS011;4778;44.510;11.378;2023-03-04T09:16:51;22.83;;;13.63;;
9479;SDS011;4778;44.510;11.378;2023-03-04T09:19:17;21.80;;;14.38;;
9479;SDS011;4778;44.510;11.378;2023-03-04T09:21:44;20.90;;;13.60;;
9479;SDS011;4778;44.510;11.378;2023-03-04T09:24:10;19.30;;;13.00;;
9479;SDS011;4778;44.510;11.378;2023-03-04T09:26:36;19.25;;;13.10;;
9479;SDS011;4778;44.510;11.378;2023-03-04T09:29:02;18.77;;;12.02;;
9479;SDS011;4778;44.510;11.378;2023-03-04T09:31:29;19.73;;;13.20;;
9479;SDS011;4778;44.510;11.378;2023-03-04T09:33:55;17.70;;;12.73;;
9479;SDS011;4778;44.510;11.378;2023-03-04T09:36:22;19.73;;;13.15;;
9479;SDS011;4778;44.510;11.378;2023-03-04T09:38:49;19.83;;;12.50;;
9479;SDS011;4778;44.510;11.378;2023-03-04T09:43:41;19.02;;;11.85;;
9479;SDS011;4778;44.510;11.378;2023-03-04T09:46:10;18.45;;;11.52;;
9479;SDS011;4778;44.510;11.378;2023-03-04T09:48:47;14.82;;;11.25;;
9479;SDS011;4778;44.510;11.378;2023-03-04T09:56:09;17.95;;;11.82;;
9479;SDS011;4778;44.510;11.378;2023-03-04T09:58:41;17.93;;;13.10;;
9479;SDS011;4778;44.510;11.378;2023-03-04T10:01:11;16.42;;;10.68;;
9479;SDS011;4778;44.510;11.378;2023-03-04T10:03:46;16.50;;;9.98;;
9479;SDS011;4778;44.510;11.378;2023-03-04T10:06:15;16.27;;;9.40;;
9479;SDS011;4778;44.510;11.378;2023-03-04T10:11:10;16.75;;;10.10;;
9479;SDS011;4778;44.510;11.378;2023-03-04T10:13:39;14.98;;;9.02;;
9479;SDS011;4778;44.510;11.378;2023-03-04T10:16:07;16.85;;;10.35;;
9479;SDS011;4778;44.510;11.378;2023-03-04T10:18:43;16.75;;;10.85;;
9479;SDS011;4778;44.510;11.378;2023-03-04T10:21:16;13.25;;;9.35;;
9479;SDS011;4778;44.510;11.378;2023-03-04T10:23:45;12.05;;;8.82;;
9479;SDS011;4778;44.510;11.378;2023-03-04T10:26:13;14.18;;;9.02;;
9479;SDS011;4778;44.510;11.378;2023-03-04T10:28:40;12.70;;;9.23;;
9479;SDS011;4778;44.510;11.378;2023-03-04T10:33:38;16.05;;;9.88;;
9479;SDS011;4778;44.510;11.378;2023-03-04T10:38:40;16.80;;;11.00;;
9479;SDS011;4778;44.510;11.378;2023-03-04T10:41:17;16.13;;;10.48;;
9479;SDS011;4778;44.510;11.378;2023-03-04T10:43:48;15.53;;;10.80;;
9479;SDS011;4778;44.510;11.378;2023-03-04T10:46:15;15.05;;;10.27;;
9479;SDS011;4778;44.510;11.378;2023-03-04T10:48:42;14.90;;;11.07;;
9479;SDS011;4778;44.510;11.378;2023-03-04T10:51:19;17.88;;;10.85;;
9479;SDS011;4778;44.510;11.378;2023-03-04T10:53:46;14.48;;;9.50;;
9479;SDS011;4778;44.510;11.378;2023-03-04T10:59:23;15.98;;;10.80;;
9479;SDS011;4778;44.510;11.378;2023-03-04T11:01:54;14.93;;;10.30;;
9479;SDS011;4778;44.510;11.378;2023-03-04T11:04:24;14.05;;;10.73;;
9479;SDS011;4778;44.510;11.378;2023-03-04T11:06:51;14.40;;;10.75;;
9479;SDS011;4778;44.510;11.378;2023-03-04T11:09:21;13.85;;;10.40;;
9479;SDS011;4778;44.510;11.378;2023-03-04T11:11:49;15.80;;;10.43;;
9479;SDS011;4778;44.510;11.378;2023-03-04T11:14:22;17.55;;;11.57;;
9479;SDS011;4778;44.510;11.378;2023-03-04T11:16:54;17.35;;;11.10;;
9479;SDS011;4778;44.510;11.378;2023-03-04T11:19:20;14.93;;;11.02;;
9479;SDS011;4778;44.510;11.378;2023-03-04T11:21:48;12.60;;;10.07;;
9479;SDS011;4778;44.510;11.378;2023-03-04T11:24:21;12.82;;;9.77;;
9479;SDS011;4778;44.510;11.378;2023-03-04T11:26:50;16.07;;;10.43;;
9479;SDS011;4778;44.510;11.378;2023-03-04T11:42:51;16.73;;;10.93;;
9479;SDS011;4778;44.510;11.378;2023-03-04T11:44:49;15.43;;;10.23;;
9479;SDS011;4778;44.510;11.378;2023-03-04T11:53:03;13.52;;;10.60;;
9479;SDS011;4778;44.510;11.378;2023-03-04T12:03:09;14.15;;;9.60;;
9479;SDS011;4778;44.510;11.378;2023-03-04T12:06:03;13.80;;;10.07;;
9479;SDS011;4778;44.510;11.378;2023-03-04T12:11:01;16.13;;;10.80;;
9479;SDS011;4778;44.510;11.378;2023-03-04T12:26:49;13.70;;;9.73;;
9479;SDS011;4778;44.510;11.378;2023-03-04T12:35:13;15.52;;;9.77;;
9479;SDS011;4778;44.510;11.378;2023-03-04T12:40:18;12.90;;;8.82;;
9479;SDS011;4778;44.510;11.378;2023-03-04T12:45:42;12.38;;;9.32;;
9479;SDS011;4778;44.510;11.378;2023-03-04T12:55:41;15.73;;;9.40;;
9479;SDS011;4778;44.510;11.378;2023-03-04T12:58:17;14.75;;;10.02;;
9479;SDS011;4778;44.510;11.378;2023-03-04T13:00:54;11.90;;;8.27;;
9479;SDS011;4778;44.510;11.378;2023-03-04T13:06:04;11.95;;;8.35;;
9479;SDS011;4778;44.510;11.378;2023-03-04T13:08:37;11.55;;;8.43;;
9479;SDS011;4778;44.510;11.378;2023-03-04T13:16:39;12.88;;;8.00;;
9479;SDS011;4778;44.510;11.378;2023-03-04T13:21:51;14.40;;;9.30;;
9479;SDS011;4778;44.510;11.378;2023-03-04T13:29:49;13.98;;;10.23;;
9479;SDS011;4778;44.510;11.378;2023-03-04T13:32:24;13.57;;;10.43;;
9479;SDS011;4778;44.510;11.378;2023-03-04T13:34:59;15.68;;;10.23;;
9479;SDS011;4778;44.510;11.378;2023-03-04T13:37:30;15.13;;;9.93;;
9479;SDS011;4778;44.510;11.378;2023-03-04T13:42:42;16.45;;;10.20;;
9479;SDS011;4778;44.510;11.378;2023-03-04T13:47:53;12.35;;;9.13;;
9479;SDS011;4778;44.510;11.378;2023-03-04T13:50:21;15.68;;;10.02;;
9479;SDS011;4778;44.510;11.378;2023-03-04T13:52:47;12.43;;;8.90;;
9479;SDS011;4778;44.510;11.378;2023-03-04T13:57:58;11.93;;;8.50;;
9479;SDS011;4778;44.510;11.378;2023-03-04T14:00:25;11.98;;;8.77;;
9479;SDS011;4778;44.510;11.378;2023-03-04T14:02:51;12.50;;;8.23;;
9479;SDS011;4778;44.510;11.378;2023-03-04T14:05:18;11.43;;;8.60;;
9479;SDS011;4778;44.510;11.378;2023-03-04T14:07:44;11.88;;;8.20;;
9479;SDS011;4778;44.510;11.378;2023-03-04T14:12:38;11.80;;;8.35;;
9479;SDS011;4778;44.510;11.378;2023-03-04T14:17:38;11.27;;;8.27;;
9479;SDS011;4778;44.510;11.378;2023-03-04T14:20:16;11.77;;;8.30;;
9479;SDS011;4778;44.510;11.378;2023-03-04T14:22:46;10.67;;;8.40;;
9479;SDS011;4778;44.510;11.378;2023-03-04T14:27:38;13.00;;;8.63;;
9479;SDS011;4778;44.510;11.378;2023-03-04T14:30:05;10.52;;;7.55;;
9479;SDS011;4778;44.510;11.378;2023-03-04T14:32:33;11.10;;;7.35;;
9479;SDS011;4778;44.510;11.378;2023-03-04T14:35:06;11.27;;;6.95;;
9479;SDS011;4778;44.510;11.378;2023-03-04T14:40:33;11.82;;;6.47;;
9479;SDS011;4778;44.510;11.378;2023-03-04T14:43:04;11.50;;;7.77;;
9479;SDS011;4778;44.510;11.378;2023-03-04T14:45:31;10.60;;;7.22;;
9479;SDS011;4778;44.510;11.378;2023-03-04T14:47:59;10.00;;;6.93;;
9479;SDS011;4778;44.510;11.378;2023-03-04T14:50:26;8.93;;;6.38;;
9479;SDS011;4778;44.510;11.378;2023-03-04T14:55:33;12.45;;;8.13;;
9479;SDS011;4778;44.510;11.378;2023-03-04T14:58:07;12.17;;;8.83;;
9479;SDS011;4778;44.510;11.378;2023-03-04T15:00:34;11.75;;;8.25;;
9479;SDS011;4778;44.510;11.378;2023-03-04T15:03:01;13.00;;;7.93;;
9479;SDS011;4778;44.510;11.378;2023-03-04T15:05:32;10.10;;;7.80;;
9479;SDS011;4778;44.510;11.378;2023-03-04T15:10:26;11.23;;;8.13;;
9479;SDS011;4778;44.510;11.378;2023-03-04T15:12:53;11.90;;;8.35;;
9479;SDS011;4778;44.510;11.378;2023-03-04T15:15:33;11.35;;;7.90;;
9479;SDS011;4778;44.510;11.378;2023-03-04T15:18:01;11.80;;;8.27;;
9479;SDS011;4778;44.510;11.378;2023-03-04T15:20:28;12.52;;;7.97;;
9479;SDS011;4778;44.510;11.378;2023-03-04T15:22:56;11.90;;;8.50;;
9479;SDS011;4778;44.510;11.378;2023-03-04T15:25:23;10.70;;;7.67;;
9479;SDS011;4778;44.510;11.378;2023-03-04T15:27:49;11.63;;;7.13;;
9479;SDS011;4778;44.510;11.378;2023-03-04T15:30:17;10.30;;;6.60;;
9479;SDS011;4778;44.510;11.378;2023-03-04T15:32:43;10.63;;;7.18;;
9479;SDS011;4778;44.510;11.378;2023-03-04T15:35:13;11.83;;;7.37;;
9479;SDS011;4778;44.510;11.378;2023-03-04T15:37:39;12.05;;;7.30;;
9479;SDS011;4778;44.510;11.378;2023-03-04T15:43:03;11.55;;;7.78;;
9479;SDS011;4778;44.510;11.378;2023-03-04T15:45:34;14.48;;;8.18;;
9479;SDS011;4778;44.510;11.378;2023-03-04T15:48:01;9.82;;;7.88;;
9479;SDS011;4778;44.510;11.378;2023-03-04T15:53:07;11.73;;;8.23;;
9479;SDS011;4778;44.510;11.378;2023-03-04T15:55:34;11.82;;;7.75;;
9479;SDS011;4778;44.510;11.378;2023-03-04T15:58:00;10.60;;;7.00;;
9479;SDS011;4778;44.510;11.378;2023-03-04T16:00:27;10.68;;;7.60;;
9479;SDS011;4778;44.510;11.378;2023-03-04T16:02:54;12.10;;;7.72;;
9479;SDS011;4778;44.510;11.378;2023-03-04T16:05:21;11.02;;;7.20;;
9479;SDS011;4778;44.510;11.378;2023-03-04T16:07:47;9.95;;;8.10;;
9479;SDS011;4778;44.510;11.378;2023-03-04T16:10:16;13.65;;;8.95;;
9479;SDS011;4778;44.510;11.378;2023-03-04T16:12:43;11.82;;;9.18;;
9479;SDS011;4778;44.510;11.378;2023-03-04T16:15:16;15.45;;;9.52;;
9479;SDS011;4778;44.510;11.378;2023-03-04T16:17:43;13.93;;;9.10;;
9479;SDS011;4778;44.510;11.378;2023-03-04T16:20:10;11.25;;;8.82;;
9479;SDS011;4778;44.510;11.378;2023-03-04T16:22:37;12.95;;;9.27;;
9479;SDS011;4778;44.510;11.378;2023-03-04T16:25:03;11.60;;;8.57;;
9479;SDS011;4778;44.510;11.378;2023-03-04T16:27:29;10.93;;;8.57;;
9479;SDS011;4778;44.510;11.378;2023-03-04T16:29:55;10.82;;;8.05;;
9479;SDS011;4778;44.510;11.378;2023-03-04T16:32:21;13.10;;;9.05;;
9479;SDS011;4778;44.510;11.378;2023-03-04T16:34:48;14.45;;;9.23;;
9479;SDS011;4778;44.510;11.378;2023-03-04T16:37:17;13.68;;;9.90;;
9479;SDS011;4778;44.510;11.378;2023-03-04T16:39:43;12.90;;;9.43;;
9479;SDS011;4778;44.510;11.378;2023-03-04T16:42:16;12.93;;;9.95;;
9479;SDS011;4778;44.510;11.378;2023-03-04T16:44:43;13.52;;;9.90;;
9479;SDS011;4778;44.510;11.378;2023-03-04T16:47:10;14.55;;;9.63;;
9479;SDS011;4778;44.510;11.378;2023-03-04T16:49:36;14.75;;;9.63;;
9479;SDS011;4778;44.510;11.378;2023-03-04T16:52:03;16.98;;;10.27;;